Time;durP1;ratioP1;P1;durP2;ratioP2;P2;SDS_P1;SDS_P2;PMS_P1;PMS_P2;Temp;Humidity;BMP_temperature;BMP_pressure;BME280_temperature;BME280_humidity;BME280_pressure;Samples;Min_cycle;Max_cycle;Signal;HPM_P1;HPM_P2
2022/04/25 00:01:55;;;;;;;9.43;6.63;;;;;;;19.03;53.87;99687.91;4988548;28;20034;-42
2022/04/25 00:04:20;;;;;;;13.02;7.70;;;;;;;19.02;53.79;99686.28;4986570;28;20073;-47
2022/04/25 00:06:46;;;;;;;12.05;7.47;;;;;;;19.01;53.65;99687.31;4987267;28;20030;-44
2022/04/25 00:09:11;;;;;;;10.52;7.57;;;;;;;19.01;53.72;99688.13;4988024;28;20441;-45
2022/04/25 00:11:37;;;;;;;12.63;7.68;;;;;;;19.01;53.56;99687.31;4988434;28;20046;-45
2022/04/25 00:14:02;;;;;;;11.15;6.78;;;;;;;19.00;53.68;99690.97;4984315;28;20112;-40
2022/04/25 00:16:28;;;;;;;12.32;7.50;;;;;;;19.00;53.80;99683.06;4985823;28;20084;-44
2022/04/25 00:18:53;;;;;;;10.82;6.90;;;;;;;18.99;53.82;99684.06;4986729;28;20423;-47
2022/04/25 00:21:19;;;;;;;10.10;6.82;;;;;;;18.98;53.82;99682.47;4987075;28;20042;-41
2022/04/25 00:23:44;;;;;;;10.32;6.60;;;;;;;18.99;54.03;99681.44;4986911;28;20053;-45
2022/04/25 00:26:10;;;;;;;10.55;6.65;;;;;;;18.97;53.94;99680.84;4988615;28;20065;-44
2022/04/25 00:28:35;;;;;;;11.13;5.82;;;;;;;18.97;54.07;99683.47;4987343;28;20458;-47
2022/04/25 00:31:01;;;;;;;10.43;6.47;;;;;;;18.96;53.86;99684.50;4984686;28;20126;-44
2022/04/25 00:33:27;;;;;;;9.88;6.05;;;;;;;18.95;53.86;99688.97;4986225;28;20078;-41
2022/04/25 00:35:52;;;;;;;8.27;6.00;;;;;;;18.94;53.80;99684.72;4988113;28;20337;-46
2022/04/25 00:38:18;;;;;;;9.45;5.85;;;;;;;18.94;53.94;99687.38;4987926;28;20084;-48
2022/04/25 00:40:44;;;;;;;11.15;6.60;;;;;;;18.94;53.95;99689.19;4985909;28;20122;-44
2022/04/25 00:43:09;;;;;;;9.80;6.28;;;;;;;18.94;53.95;99689.19;4985519;28;20030;-41
2022/04/25 00:45:37;;;;;;;8.40;4.97;;;;;;;18.95;53.78;99685.53;4984411;28;20036;-44
2022/04/25 00:48:03;;;;;;;8.05;5.72;;;;;;;18.93;53.98;99684.94;4986768;28;20038;-46
2022/04/25 00:50:29;;;;;;;8.35;5.63;;;;;;;18.94;53.94;99686.56;4987745;28;20057;-42
2022/04/25 00:52:55;;;;;;;8.93;5.30;;;;;;;18.94;53.86;99687.38;4987053;28;20475;-42
2022/04/25 00:55:20;;;;;;;9.77;5.43;;;;;;;18.94;53.83;99694.47;4988613;28;20042;-43
2022/04/25 00:57:47;;;;;;;6.90;4.60;;;;;;;18.95;53.77;99682.91;4987058;28;20034;-45
2022/04/25 01:00:13;;;;;;;8.00;4.57;;;;;;;18.95;53.86;99688.19;4986540;28;20022;-43
2022/04/25 01:02:40;;;;;;;9.40;4.97;;;;;;;18.95;53.85;99682.91;4987062;28;20121;-44
2022/04/25 01:05:07;;;;;;;7.40;4.55;;;;;;;18.94;53.88;99687.38;4986778;28;20113;-49
2022/04/25 01:07:35;;;;;;;7.80;5.15;;;;;;;18.94;53.97;99686.56;4987347;28;20088;-43
2022/04/25 01:10:01;;;;;;;7.05;4.70;;;;;;;18.94;53.88;99689.19;4982849;28;20034;-48
2022/04/25 01:12:28;;;;;;;7.57;4.85;;;;;;;18.95;53.72;99693.44;4985303;28;20117;-44
2022/04/25 01:15:04;;;;;;;8.90;5.32;;;;;;;18.94;53.93;99692.66;4985917;28;20030;-46
2022/04/25 01:17:30;;;;;;;8.60;4.88;;;;;;;18.95;53.85;99696.91;4983708;28;20066;-42
2022/04/25 01:19:55;;;;;;;6.82;3.90;;;;;;;18.95;53.71;99699.53;4986095;28;20103;-44
2022/04/25 01:22:28;;;;;;;7.53;4.72;;;;;;;18.95;53.80;99688.97;4985653;28;20421;-42
2022/04/25 01:27:38;;;;;;;6.78;4.07;;;;;;;18.96;53.67;99705.63;4986457;28;20066;-44
2022/04/25 01:30:07;;;;;;;6.20;4.07;;;;;;;18.96;53.70;99710.91;4983844;28;20034;-44
2022/04/25 01:32:33;;;;;;;5.78;3.80;;;;;;;18.98;53.81;99703.56;4981337;28;20053;-47
2022/04/25 01:34:58;;;;;;;6.90;4.32;;;;;;;18.97;53.85;99705.41;4982993;28;20034;-48
2022/04/25 01:37:24;;;;;;;6.38;4.22;;;;;;;18.96;53.70;99703.00;4985662;28;20030;-45
2022/04/25 01:39:52;;;;;;;5.97;4.00;;;;;;;18.96;53.90;99705.63;4982041;28;20485;-45
2022/04/25 01:42:20;;;;;;;7.28;4.10;;;;;;;18.96;53.81;99708.25;4985320;28;20034;-45
2022/04/25 01:44:46;;;;;;;6.13;3.70;;;;;;;18.95;53.52;99709.28;4984897;28;20036;-45
2022/04/25 01:47:12;;;;;;;8.57;3.88;;;;;;;18.94;53.68;99702.41;4985718;28;20316;-43
2022/04/25 01:49:38;;;;;;;6.50;3.65;;;;;;;18.93;53.61;99701.59;4985147;28;20254;-43
2022/04/25 01:52:08;;;;;;;5.22;3.47;;;;;;;18.93;53.65;99704.22;4985578;28;20532;-49
2022/04/25 01:54:33;;;;;;;5.07;3.42;;;;;;;18.92;53.70;99704.44;4983892;28;20027;-46
2022/04/25 01:57:00;;;;;;;5.03;3.22;;;;;;;18.93;53.73;99703.41;4986383;28;20057;-46
2022/04/25 01:59:26;;;;;;;4.78;3.10;;;;;;;18.92;53.62;99705.25;4985365;28;20030;-43
2022/04/25 02:01:52;;;;;;;4.63;2.75;;;;;;;18.93;53.63;99706.06;4985687;28;20208;-43
2022/04/25 02:04:19;;;;;;;6.15;3.53;;;;;;;18.92;53.72;99704.44;4984056;28;20442;-41
2022/04/25 02:06:45;;;;;;;6.97;3.47;;;;;;;18.91;53.55;99701.00;4985309;28;20537;-39
2022/04/25 02:09:10;;;;;;;5.57;3.28;;;;;;;18.93;53.65;99703.41;4984426;28;20038;-42
2022/04/25 02:11:36;;;;;;;5.38;3.00;;;;;;;18.91;53.90;99703.63;5204535;22;21213;-42
2022/04/25 02:14:02;;;;;;;3.92;2.45;;;;;;;18.91;53.55;99701.00;5007194;28;20200;-44
2022/04/25 02:16:27;;;;;;;5.65;3.22;;;;;;;18.90;53.62;99696.78;5006863;28;20029;-43
2022/04/25 02:18:54;;;;;;;4.60;3.00;;;;;;;18.90;53.70;99702.06;5007082;28;20534;-47
2022/04/25 02:21:19;;;;;;;7.05;3.95;;;;;;;18.90;53.54;99702.06;5006903;28;20036;-47
2022/04/25 02:23:45;;;;;;;4.53;2.95;;;;;;;18.88;53.58;99710.19;5006825;28;20034;-41
2022/04/25 02:26:11;;;;;;;5.97;3.10;;;;;;;18.88;53.68;99709.38;5006700;28;20078;-40
2022/04/25 02:28:37;;;;;;;4.72;2.60;;;;;;;18.87;53.60;99716.50;5006903;28;20085;-45
2022/04/25 02:31:04;;;;;;;3.88;2.70;;;;;;;18.86;53.62;99712.22;5006785;28;20389;-44
2022/04/25 02:33:31;;;;;;;5.38;3.28;;;;;;;18.85;53.63;99715.91;5006781;28;20177;-45
2022/04/25 02:35:58;;;;;;;3.95;2.28;;;;;;;18.87;53.83;99718.31;5006505;28;20441;-46
2022/04/25 02:38:23;;;;;;;3.65;2.47;;;;;;;18.85;53.68;99718.53;5006926;28;20113;-41
2022/04/25 02:41:10;;;;;;;4.43;2.80;;;;;;;18.83;53.55;99715.31;5021450;28;20125;-47
2022/04/25 02:43:38;;;;;;;3.75;2.55;;;;;;;18.82;53.35;99720.78;5006418;28;20381;-44
2022/04/25 02:46:06;;;;;;;5.22;2.70;;;;;;;18.82;53.54;99726.06;5006684;28;20152;-44
2022/04/25 02:48:33;;;;;;;4.13;2.25;;;;;;;18.82;53.72;99732.16;5006853;28;20109;-45
2022/04/25 02:50:58;;;;;;;3.67;2.13;;;;;;;18.82;53.60;99718.97;5007043;28;20022;-45
2022/04/25 02:53:27;;;;;;;3.25;2.30;;;;;;;18.82;53.64;99731.34;5005035;28;20034;-46
2022/04/25 02:55:53;;;;;;;4.43;2.42;;;;;;;18.81;53.58;99727.91;5005748;28;20038;-47
2022/04/25 02:58:23;;;;;;;5.05;2.50;;;;;;;18.81;53.58;99735.81;5003160;28;20216;-43
2022/04/25 03:00:49;;;;;;;2.75;2.03;;;;;;;18.81;53.73;99735.81;5003708;28;20064;-43
2022/04/25 03:03:16;;;;;;;3.10;1.88;;;;;;;18.82;53.46;99737.44;5004760;28;20033;-45
2022/04/25 03:05:44;;;;;;;3.58;2.47;;;;;;;18.83;53.69;99739.06;5006522;28;20112;-43
2022/04/25 03:08:14;;;;;;;4.32;2.47;;;;;;;18.82;53.62;99741.91;5009065;28;20044;-47
2022/04/25 03:10:42;;;;;;;3.00;1.80;;;;;;;18.82;53.52;99737.44;5009400;28;20037;-44
2022/04/25 03:13:09;;;;;;;2.42;1.55;;;;;;;18.83;53.58;99746.16;5010126;28;20050;-43
2022/04/25 03:15:38;;;;;;;3.38;2.10;;;;;;;18.82;53.26;99745.34;5009602;28;20064;-45
2022/04/25 03:18:05;;;;;;;2.95;1.92;;;;;;;18.82;53.50;99742.72;5008352;28;20037;-44
2022/04/25 03:20:31;;;;;;;3.67;2.30;;;;;;;18.82;53.55;99740.06;5007798;28;20109;-43
2022/04/25 03:22:57;;;;;;;3.40;1.90;;;;;;;18.81;53.63;99748.22;5010270;28;20045;-41
2022/04/25 03:25:23;;;;;;;2.15;1.50;;;;;;;18.81;53.52;99750.84;5009499;28;20053;-42
2022/04/25 03:27:49;;;;;;;2.80;1.70;;;;;;;18.81;53.58;99750.84;5008794;28;20137;-44
2022/04/25 03:30:15;;;;;;;2.80;1.73;;;;;;;18.81;53.62;99751.66;5009575;28;20162;-42
2022/04/25 03:32:45;;;;;;;2.65;1.63;;;;;;;18.81;53.59;99753.47;5006389;28;20049;-43
2022/04/25 03:35:14;;;;;;;2.17;1.45;;;;;;;18.82;53.51;99757.75;5010135;28;20044;-42
2022/04/25 03:37:41;;;;;;;2.88;1.60;;;;;;;18.83;53.64;99754.88;5008952;28;20036;-43
2022/04/25 03:40:09;;;;;;;3.40;2.17;;;;;;;18.83;53.52;99754.88;5009082;28;20296;-42
2022/04/25 03:42:39;;;;;;;2.55;1.70;;;;;;;18.84;53.46;99755.69;5010186;28;20052;-43
2022/04/25 03:45:05;;;;;;;3.53;1.73;;;;;;;18.84;53.51;99759.13;5008934;28;20042;-43
2022/04/25 03:47:32;;;;;;;2.20;1.35;;;;;;;18.84;53.58;99755.69;5005224;28;20092;-45
2022/04/25 03:49:58;;;;;;;3.60;2.03;;;;;;;18.84;53.51;99759.13;5006809;28;20034;-43
2022/04/25 03:52:23;;;;;;;2.33;1.42;;;;;;;18.84;53.50;99756.50;5009907;28;20034;-44
2022/04/25 03:57:33;;;;;;;2.65;1.10;;;;;;;18.83;53.54;99757.53;5009447;28;20041;-43
2022/04/25 03:59:58;;;;;;;3.47;1.15;;;;;;;18.82;53.45;99760.38;5007332;28;20393;-46
2022/04/25 04:02:24;;;;;;;2.00;1.10;;;;;;;18.82;53.45;99763.81;5006027;28;20034;-46
2022/04/25 04:04:49;;;;;;;2.45;1.23;;;;;;;18.81;53.54;99762.22;5006909;28;20085;-44
2022/04/25 04:07:15;;;;;;;2.75;1.63;;;;;;;18.82;53.46;99768.28;5008663;28;20823;-42
2022/04/25 04:09:46;;;;;;;3.35;1.27;;;;;;;18.81;53.45;99775.41;5008337;28;20049;-48
2022/04/25 04:12:12;;;;;;;3.20;1.52;;;;;;;18.81;53.50;99770.13;5008225;28;20061;-44
2022/04/25 04:14:40;;;;;;;3.08;0.98;;;;;;;18.80;53.47;99775.63;5007131;28;20044;-45
2022/04/25 04:17:08;;;;;;;2.03;1.20;;;;;;;18.81;53.72;99775.41;5008227;28;20037;-45
2022/04/25 04:19:38;;;;;;;2.53;1.27;;;;;;;18.79;53.38;99774.81;5004439;28;20030;-43
2022/04/25 04:22:05;;;;;;;2.00;1.00;;;;;;;18.81;53.23;99772.75;5008888;28;20044;-41
2022/04/25 04:24:32;;;;;;;2.17;1.38;;;;;;;18.80;53.56;99780.91;5007897;28;20104;-44
2022/04/25 04:27:01;;;;;;;2.33;1.13;;;;;;;18.80;53.28;99780.91;5007015;28;20412;-43
2022/04/25 04:29:34;;;;;;;1.88;1.10;;;;;;;18.77;53.42;99779.50;5008328;28;20117;-42
2022/04/25 04:32:02;;;;;;;2.00;1.10;;;;;;;18.77;53.39;99782.13;5006828;28;20022;-48
2022/04/25 04:34:29;;;;;;;2.58;1.30;;;;;;;18.77;53.49;99784.78;5007745;28;20187;-41
2022/04/25 04:36:55;;;;;;;2.42;1.10;;;;;;;18.77;53.36;99782.13;5007441;28;20068;-43
2022/04/25 04:39:20;;;;;;;1.40;0.90;;;;;;;18.77;53.31;99789.25;5007893;28;20030;-43
2022/04/25 04:41:46;;;;;;;1.80;0.90;;;;;;;18.76;53.35;99785.78;5006200;28;20448;-45
2022/04/25 04:44:12;;;;;;;2.00;1.00;;;;;;;18.75;53.27;99792.09;5007182;28;20544;-46
2022/04/25 04:46:38;;;;;;;1.67;0.70;;;;;;;18.74;53.28;99798.38;5008962;28;20038;-46
2022/04/25 04:49:04;;;;;;;2.53;0.85;;;;;;;18.74;53.46;99797.59;5005360;28;20385;-46
2022/04/25 04:51:29;;;;;;;1.80;0.95;;;;;;;18.73;53.40;99796.78;4991001;28;20362;-42
2022/04/25 04:53:59;;;;;;;2.13;0.80;;;;;;;18.73;53.40;99799.41;5008307;28;20095;-43
2022/04/25 04:56:31;;;;;;;1.55;0.93;;;;;;;18.73;53.30;99796.78;5006557;28;20033;-43
2022/04/25 04:58:58;;;;;;;2.08;0.60;;;;;;;18.71;53.39;99796.19;5005705;28;20038;-42
2022/04/25 05:01:24;;;;;;;1.92;0.95;;;;;;;18.73;53.23;99804.69;5003826;28;20037;-47
2022/04/25 05:03:50;;;;;;;1.67;1.17;;;;;;;18.72;53.35;99803.06;5006225;28;20025;-43
2022/04/25 05:06:16;;;;;;;1.20;0.60;;;;;;;18.72;53.45;99810.19;5007954;28;20571;-43
2022/04/25 05:08:42;;;;;;;2.55;1.02;;;;;;;18.71;53.67;99809.38;5006170;28;20030;-46
2022/04/25 05:11:09;;;;;;;1.33;0.70;;;;;;;18.71;53.34;99814.66;5005297;28;20025;-42
2022/04/25 05:13:36;;;;;;;2.05;1.08;;;;;;;18.70;53.33;99815.66;5007698;28;20057;-49
2022/04/25 05:16:03;;;;;;;1.80;0.80;;;;;;;18.71;53.24;99814.66;5007718;28;20161;-46
2022/04/25 05:18:32;;;;;;;3.75;0.70;;;;;;;18.71;53.41;99814.66;5001286;28;20040;-44
2022/04/25 05:20:58;;;;;;;2.38;1.27;;;;;;;18.70;53.32;99818.31;5003771;28;20030;-41
2022/04/25 05:23:24;;;;;;;1.70;0.80;;;;;;;18.73;53.26;99819.72;5006816;28;20042;-41
2022/04/25 05:25:50;;;;;;;1.40;0.80;;;;;;;18.72;53.35;99823.38;5005297;28;20026;-44
2022/04/25 05:28:15;;;;;;;3.03;1.00;;;;;;;18.72;53.30;99826.00;5005426;28;20036;-47
2022/04/25 05:30:42;;;;;;;1.80;0.93;;;;;;;18.70;53.27;99828.84;4989256;28;20077;-44
2022/04/25 05:33:07;;;;;;;1.45;0.60;;;;;;;18.70;53.42;99826.22;5005144;28;20544;-44
2022/04/25 05:35:33;;;;;;;1.40;0.73;;;;;;;18.70;53.37;99830.69;5005531;28;20481;-47
2022/04/25 05:38:00;;;;;;;1.30;0.70;;;;;;;18.70;53.41;99833.31;5007758;28;20544;-43
2022/04/25 05:40:26;;;;;;;1.55;0.80;;;;;;;18.69;53.22;99837.78;5006658;28;20121;-45
2022/04/25 05:42:54;;;;;;;1.15;0.50;;;;;;;18.69;53.17;99842.25;5004789;28;20223;-44
2022/04/25 05:45:21;;;;;;;1.67;0.63;;;;;;;18.68;53.32;99846.72;5006712;28;20112;-46
2022/04/25 05:47:47;;;;;;;1.73;0.63;;;;;;;18.68;53.32;99836.19;5005478;28;20050;-40
2022/04/25 05:53:00;;;;;;;2.60;0.50;;;;;;;18.68;53.45;99845.94;5005019;28;20083;-47
2022/04/25 05:55:27;;;;;;;1.23;0.60;;;;;;;18.68;53.55;99854.66;5007069;28;20048;-46
2022/04/25 05:57:52;;;;;;;4.60;0.77;;;;;;;18.70;53.59;99849.97;5006793;28;20038;-47
2022/04/25 06:00:18;;;;;;;2.88;0.65;;;;;;;18.71;53.40;99851.59;5003956;28;20361;-43
2022/04/25 06:02:44;;;;;;;2.15;0.60;;;;;;;18.72;53.49;99858.47;5005691;28;20060;-49
2022/04/25 06:05:11;;;;;;;1.15;0.50;;;;;;;18.73;53.49;99869.84;5004085;28;20030;-44
2022/04/25 06:07:41;;;;;;;1.38;0.52;;;;;;;18.73;53.66;99868.03;5005989;28;20075;-43
2022/04/25 06:10:08;;;;;;;1.90;0.80;;;;;;;18.74;53.59;99872.28;5004779;28;20129;-45
2022/04/25 06:12:39;;;;;;;3.10;0.57;;;;;;;18.72;53.51;99874.31;5004184;28;20169;-43
2022/04/25 06:15:05;;;;;;;1.63;0.60;;;;;;;18.74;53.52;99874.09;5004903;28;20493;-43
2022/04/25 06:17:30;;;;;;;0.95;0.40;;;;;;;18.74;53.48;99882.03;5006677;28;20037;-43
2022/04/25 06:19:56;;;;;;;1.30;0.60;;;;;;;18.74;53.47;99874.91;5004220;28;20059;-50
2022/04/25 06:22:21;;;;;;;1.05;0.40;;;;;;;18.74;53.42;99887.28;5005045;28;20491;-47
2022/04/25 06:24:47;;;;;;;1.30;0.63;;;;;;;18.72;53.50;99886.69;5004430;28;20030;-46
2022/04/25 06:27:13;;;;;;;0.98;0.50;;;;;;;18.71;53.36;99885.06;5004325;28;20507;-42
2022/04/25 06:29:44;;;;;;;3.42;0.60;;;;;;;18.71;53.44;99893.81;5002885;28;20508;-47
2022/04/25 06:32:10;;;;;;;0.95;0.50;;;;;;;18.72;53.45;99889.34;5004989;28;20030;-43
2022/04/25 06:34:36;;;;;;;1.67;0.70;;;;;;;18.71;53.44;99893.00;5004853;28;20509;-46
2022/04/25 06:37:01;;;;;;;1.50;0.60;;;;;;;18.71;53.44;99904.38;5004167;28;20042;-42
2022/04/25 06:39:27;;;;;;;1.50;0.40;;;;;;;18.70;53.39;99896.66;5005253;28;20123;-41
2022/04/25 06:41:52;;;;;;;5.25;0.63;;;;;;;18.70;53.42;99904.56;5009108;28;20117;-43
2022/04/25 06:44:18;;;;;;;2.53;0.60;;;;;;;18.69;53.41;99900.31;5012662;28;20124;-41
2022/04/25 06:46:43;;;;;;;1.20;0.50;;;;;;;18.69;53.54;99900.31;5009998;28;20559;-43
2022/04/25 06:49:25;;;;;;;1.35;0.50;;;;;;;18.67;53.31;99903.16;5012643;28;20037;-44
2022/04/25 06:51:56;;;;;;;1.50;0.60;;;;;;;18.66;53.45;99906.81;5010991;28;20084;-44
2022/04/25 06:54:25;;;;;;;1.38;0.57;;;;;;;18.66;53.37;99906.81;5009036;28;20046;-43
2022/04/25 06:56:52;;;;;;;2.75;0.40;;;;;;;18.65;53.43;99905.19;5009555;28;20493;-45
2022/04/25 06:59:19;;;;;;;1.25;0.30;;;;;;;18.65;53.30;99915.75;5008995;28;20037;-44
2022/04/25 07:01:45;;;;;;;1.45;0.43;;;;;;;18.65;53.20;99915.75;5012757;28;20083;-44
2022/04/25 07:04:11;;;;;;;0.93;0.40;;;;;;;18.65;53.36;99912.31;5011170;28;20034;-40
2022/04/25 07:06:38;;;;;;;1.13;0.43;;;;;;;18.65;53.29;99913.13;5011144;28;20033;-40
2022/04/25 07:09:04;;;;;;;1.30;0.30;;;;;;;18.63;53.36;99912.50;5010888;28;20026;-45
2022/04/25 07:11:29;;;;;;;0.60;0.30;;;;;;;18.64;53.32;99914.13;5010744;28;20067;-46
2022/04/25 07:13:55;;;;;;;1.75;0.30;;;;;;;18.64;53.23;99914.13;5011005;28;20025;-46
2022/04/25 07:16:20;;;;;;;1.35;0.50;;;;;;;18.63;53.30;99912.50;5012091;28;20462;-47
2022/04/25 07:18:46;;;;;;;2.65;0.45;;;;;;;18.64;53.33;99919.41;5011203;28;20124;-50
2022/04/25 07:29:47;;;;;;;2.85;1.05;;;;;;;18.77;55.88;99929.91;4949211;28;20154;-55
2022/04/25 07:32:13;;;;;;;3.20;0.52;;;;;;;18.77;55.68;99934.38;4948671;28;20057;-45
2022/04/25 07:34:39;;;;;;;1.48;0.50;;;;;;;18.75;55.49;99936.41;4946286;28;20523;-47
2022/04/25 07:37:04;;;;;;;2.03;0.40;;;;;;;18.74;55.23;99935.59;4944347;29;20035;-43
2022/04/25 07:39:30;;;;;;;1.00;0.45;;;;;;;18.74;55.30;99938.25;4946711;29;20138;-45
2022/04/25 07:41:55;;;;;;;1.15;0.50;;;;;;;18.77;55.31;99948.38;4948306;29;20043;-47
2022/04/25 07:44:21;;;;;;;3.83;0.60;;;;;;;18.80;55.88;99955.06;4948049;28;20042;-53
2022/04/25 07:46:46;;;;;;;4.40;0.40;;;;;;;18.84;56.04;99951.81;4948334;28;20190;-44
2022/04/25 07:49:13;;;;;;;9.48;0.50;;;;;;;18.90;56.16;99955.44;4949334;29;20042;-52
2022/04/25 07:51:42;;;;;;;5.50;0.63;;;;;;;18.89;55.92;99954.63;4947964;28;20566;-47
2022/04/25 07:54:09;;;;;;;1.65;0.40;;;;;;;18.86;56.39;99957.69;4944770;28;20466;-44
2022/04/25 07:56:38;;;;;;;1.00;0.40;;;;;;;18.85;56.43;99963.97;4943742;29;20526;-49
2022/04/25 07:59:05;;;;;;;4.00;0.40;;;;;;;18.83;56.28;99960.75;4940429;29;20068;-46
2022/04/25 08:01:32;;;;;;;2.53;0.40;;;;;;;18.82;56.03;99963.59;4999590;28;20630;-43
2022/04/25 08:03:58;;;;;;;1.27;0.30;;;;;;;18.80;56.17;99969.06;5004609;28;20021;-46
2022/04/25 08:06:24;;;;;;;1.77;0.30;;;;;;;18.82;55.99;99966.22;5000274;28;20444;-47
2022/04/25 08:08:50;;;;;;;2.38;0.40;;;;;;;18.83;56.63;99973.13;5003688;28;20143;-45
2022/04/25 08:11:16;;;;;;;2.90;0.50;;;;;;;18.90;57.11;99971.28;5007090;28;20029;-41
2022/04/25 08:19:10;;;;;;;4.68;0.32;;;;;;;18.90;57.09;99977.31;5004860;28;20111;-44
2022/04/25 08:21:39;;;;;;;5.20;0.40;;;;;;;18.90;56.51;99979.97;5004635;28;20480;-45
2022/04/25 08:24:04;;;;;;;3.70;0.30;;;;;;;18.90;56.45;99981.81;5000334;28;20053;-51
2022/04/25 08:26:30;;;;;;;10.48;0.30;;;;;;;18.88;56.30;99987.31;4997385;28;20133;-43
2022/04/25 08:28:55;;;;;;;2.90;0.38;;;;;;;18.88;56.14;99989.16;4998659;28;20104;-42
2022/04/25 08:31:21;;;;;;;3.67;0.38;;;;;;;18.86;56.00;99994.63;4997172;28;20044;-42
2022/04/25 08:33:49;;;;;;;3.70;0.32;;;;;;;18.86;55.84;99997.28;5003410;28;20113;-51
2022/04/25 08:36:16;;;;;;;1.48;0.40;;;;;;;18.86;55.90;99999.91;5001452;28;20422;-45
2022/04/25 08:38:43;;;;;;;3.92;0.32;;;;;;;18.88;55.96;99999.72;5007087;28;20093;-43
2022/04/25 08:41:17;;;;;;;1.20;0.30;;;;;;;18.88;56.46;100005.78;5003064;28;20052;-43
2022/04/25 08:43:43;;;;;;;3.25;0.30;;;;;;;18.87;56.63;100006.81;5008349;28;20104;-40
2022/04/25 08:46:10;;;;;;;3.60;0.40;;;;;;;18.89;56.63;100009.25;5006577;28;20497;-45
2022/04/25 08:48:39;;;;;;;1.20;0.28;;;;;;;18.87;56.40;100009.44;5006562;28;20029;-42
2022/04/25 08:51:05;;;;;;;2.67;0.30;;;;;;;18.87;56.47;100016.56;5006155;28;20487;-45
2022/04/25 08:53:32;;;;;;;2.60;0.52;;;;;;;18.88;56.93;100021.63;5004238;28;20521;-45
2022/04/25 08:56:02;;;;;;;4.57;0.30;;;;;;;18.88;57.58;100023.47;5005114;28;20127;-44
2022/04/25 08:58:29;;;;;;;2.38;0.20;;;;;;;18.86;57.56;100023.66;5003476;28;20344;-42
2022/04/25 09:00:54;;;;;;;5.80;0.50;;;;;;;18.86;57.06;100028.13;5003171;28;20030;-45
2022/04/25 09:03:20;;;;;;;4.88;0.20;;;;;;;18.85;56.75;100026.50;5003537;28;20034;-45
2022/04/25 09:05:46;;;;;;;2.33;0.50;;;;;;;18.84;56.59;100028.34;5006946;28;20361;-44
2022/04/25 09:08:14;;;;;;;2.30;0.30;;;;;;;18.83;56.21;100029.34;5006512;28;20568;-51
2022/04/25 09:10:42;;;;;;;0.70;0.20;;;;;;;18.81;55.75;100034.03;5005226;28;20168;-46
2022/04/25 09:13:10;;;;;;;1.05;0.20;;;;;;;18.81;55.56;100031.41;4990615;28;20046;-49
2022/04/25 09:15:36;;;;;;;1.00;0.20;;;;;;;18.80;55.41;100032.41;5005934;28;20030;-45
2022/04/25 09:18:01;;;;;;;2.50;0.20;;;;;;;18.78;55.17;100036.28;5002611;28;20052;-53
2022/04/25 09:20:27;;;;;;;5.32;0.85;;;;;;;18.78;55.39;100037.09;5003314;28;20026;-51
2022/04/25 09:22:53;;;;;;;5.28;0.20;;;;;;;18.78;55.22;100037.09;4999403;28;20044;-43
2022/04/25 09:25:19;;;;;;;5.68;0.20;;;;;;;18.79;55.11;100051.91;5006222;28;20080;-48
2022/04/25 09:27:46;;;;;;;2.55;0.20;;;;;;;18.80;55.03;100050.06;5006027;28;20208;-52
2022/04/25 09:30:20;;;;;;;3.10;0.20;;;;;;;18.79;54.77;100048.47;5004558;28;20034;-47
2022/04/25 09:32:47;;;;;;;4.65;0.20;;;;;;;18.78;54.85;100057.41;5005294;28;20046;-48
2022/04/25 09:35:28;;;;;;;5.68;0.30;;;;;;;18.75;54.82;100055.97;5002143;28;20037;-45
2022/04/25 09:37:53;;;;;;;8.02;0.30;;;;;;;18.78;54.78;100062.66;5006005;28;20033;-46
2022/04/25 09:40:21;;;;;;;1.90;0.55;;;;;;;18.75;54.76;100058.63;5004137;28;20384;-44
2022/04/25 09:43:03;;;;;;;1.92;0.32;;;;;;;18.76;54.78;100065.50;5003542;28;21268;-43
2022/04/25 09:45:28;;;;;;;2.92;0.20;;;;;;;18.76;54.59;100060.25;5006179;28;20088;-40
2022/04/25 09:47:56;;;;;;;1.00;0.20;;;;;;;18.77;54.45;100061.06;5007183;28;20033;-48
2022/04/25 09:50:22;;;;;;;1.30;0.20;;;;;;;18.76;54.52;100062.88;5010120;28;20497;-42
2022/04/25 09:52:53;;;;;;;1.38;0.20;;;;;;;18.75;54.36;100061.25;5012108;28;20028;-45
2022/04/25 09:55:20;;;;;;;1.08;0.20;;;;;;;18.76;54.33;100060.25;5021414;28;20118;-44
2022/04/25 09:57:46;;;;;;;2.72;0.30;;;;;;;18.76;54.25;100069.97;5004847;28;20033;-40
2022/04/25 10:00:28;;;;;;;2.55;0.20;;;;;;;18.76;54.40;100070.78;5005582;28;20030;-41
2022/04/25 10:02:54;;;;;;;2.10;0.30;;;;;;;18.74;54.24;100069.38;5008113;28;20026;-48
2022/04/25 10:05:20;;;;;;;1.02;0.20;;;;;;;18.74;54.15;100078.09;5007753;28;20046;-47
2022/04/25 10:07:46;;;;;;;5.40;0.20;;;;;;;18.74;54.24;100075.47;5006600;28;20443;-42
2022/04/25 10:10:12;;;;;;;0.68;0.20;;;;;;;18.74;54.11;100072.81;5006703;28;20044;-48
2022/04/25 10:12:38;;;;;;;3.53;0.30;;;;;;;18.73;53.95;100071.22;5003263;28;20136;-41
2022/04/25 10:15:06;;;;;;;1.80;0.30;;;;;;;18.72;54.09;100072.22;4987488;28;20046;-45
2022/04/25 10:17:32;;;;;;;2.67;0.20;;;;;;;18.73;54.08;100080.94;5004958;28;20037;-41
2022/04/25 10:20:02;;;;;;;0.88;0.20;;;;;;;18.69;54.00;100070.00;5006844;28;20028;-46
2022/04/25 10:22:27;;;;;;;1.95;0.40;;;;;;;18.70;54.15;100068.16;4993686;28;20042;-42
2022/04/25 10:24:53;;;;;;;2.92;0.30;;;;;;;18.68;54.05;100078.94;5006902;28;20030;-49
2022/04/25 10:27:27;;;;;;;1.65;0.30;;;;;;;18.68;54.07;100073.66;5005992;28;20095;-43
2022/04/25 10:29:54;;;;;;;3.88;0.20;;;;;;;18.69;54.08;100079.75;5007058;28;20057;-53
2022/04/25 10:32:22;;;;;;;1.52;0.22;;;;;;;18.69;54.04;100080.56;5006707;28;20056;-49
2022/04/25 10:34:56;;;;;;;1.40;0.10;;;;;;;18.70;53.92;100081.38;4989516;28;20025;-44
2022/04/25 10:37:30;;;;;;;1.67;0.20;;;;;;;18.69;54.00;100085.81;4986587;28;20040;-47
2022/04/25 10:39:56;;;;;;;2.00;0.20;;;;;;;18.72;53.94;100085.41;4986970;28;20070;-41
2022/04/25 10:45:07;;;;;;;0.80;0.20;;;;;;;18.72;53.99;100095.16;5006926;28;20130;-45
2022/04/25 10:47:33;;;;;;;2.20;0.10;;;;;;;18.73;53.81;100092.31;5006533;28;20081;-41
2022/04/25 10:50:02;;;;;;;1.05;0.17;;;;;;;18.73;53.88;100094.97;5006114;28;20041;-42
2022/04/25 10:52:34;;;;;;;0.65;0.13;;;;;;;18.72;53.86;100095.97;5005880;28;20252;-43
2022/04/25 10:55:13;;;;;;;0.95;0.20;;;;;;;18.72;53.81;100101.25;5006195;28;20101;-46
2022/04/25 10:58:01;;;;;;;0.68;0.10;;;;;;;18.71;53.66;100098.81;5003644;28;20030;-47
2022/04/25 11:00:39;;;;;;;1.05;0.10;;;;;;;18.72;53.67;100111.00;5007237;28;20371;-41
2022/04/25 11:03:27;;;;;;;0.85;0.20;;;;;;;18.72;53.83;100109.16;5001549;28;20037;-43
2022/04/25 11:06:01;;;;;;;1.55;0.22;;;;;;;18.69;53.82;100106.94;4994759;28;20133;-43
2022/04/25 11:08:35;;;;;;;2.10;0.30;;;;;;;18.66;53.79;100102.06;5003664;28;20030;-47
2022/04/25 11:11:06;;;;;;;1.90;0.20;;;;;;;18.67;53.59;100108.16;5000437;28;20297;-44
2022/04/25 11:13:53;;;;;;;1.27;0.28;;;;;;;18.65;53.61;100113.63;4998133;28;20050;-44
2022/04/25 11:16:24;;;;;;;2.28;0.20;;;;;;;18.62;53.48;100113.25;4999199;28;20050;-43
2022/04/25 11:19:11;;;;;;;4.95;0.20;;;;;;;18.66;54.64;100117.09;5003706;28;20083;-42
2022/04/25 11:21:45;;;;;;;3.75;0.20;;;;;;;18.73;55.62;100112.63;5003460;28;20033;-42
2022/04/25 11:24:38;;;;;;;5.57;0.35;;;;;;;18.77;56.27;100114.63;5002002;28;20358;-42
2022/04/25 11:27:14;;;;;;;5.70;0.40;;;;;;;18.89;57.11;100112.19;5005187;28;20092;-43
2022/04/25 11:29:45;;;;;;;3.65;0.40;;;;;;;19.18;57.03;100110.84;5006158;28;20065;-41
2022/04/25 11:32:32;;;;;;;7.93;0.52;;;;;;;19.26;57.44;100113.28;5009743;28;20022;-43
2022/04/25 11:34:59;;;;;;;3.47;0.30;;;;;;;19.42;60.57;100117.25;5009335;28;20026;-39
2022/04/25 11:37:26;;;;;;;5.57;0.68;;;;;;;19.65;65.38;100116.75;5009908;28;20033;-44
2022/04/25 11:40:09;;;;;;;1.85;0.32;;;;;;;19.81;69.12;100122.38;5009202;28;20553;-49
2022/04/25 11:42:36;;;;;;;2.30;0.30;;;;;;;19.94;69.39;100120.63;5008002;28;20099;-42
2022/04/25 11:45:04;;;;;;;3.50;0.30;;;;;;;20.05;70.59;100123.41;5002159;28;20038;-42
2022/04/25 11:47:31;;;;;;;8.57;0.30;;;;;;;19.94;66.47;100123.28;5006389;28;20041;-46
2022/04/25 11:50:11;;;;;;;5.75;0.60;;;;;;;19.74;64.52;100128.72;5004634;28;20054;-46
2022/04/25 11:52:49;;;;;;;3.90;0.20;;;;;;;19.57;62.00;100128.38;5009340;28;20084;-50
2022/04/25 11:55:17;;;;;;;0.85;0.20;;;;;;;19.47;60.46;100125.34;5007590;28;20451;-43
2022/04/25 11:57:43;;;;;;;3.78;0.30;;;;;;;19.40;59.84;100133.31;5009023;28;20044;-42
2022/04/25 12:00:19;;;;;;;0.75;0.10;;;;;;;19.36;59.00;100136.59;5007533;28;20036;-44